createdAt,value
2018-06-10T00:00:08.311Z,101394.74
2018-06-10T00:03:10.328Z,101393.21
2018-06-10T00:06:15.507Z,101389.66
2018-06-10T00:09:17.571Z,101384.04
2018-06-10T00:12:20.343Z,101377.62
2018-06-10T00:15:22.309Z,101365.34
2018-06-10T00:18:24.385Z,101363.69
2018-06-10T00:21:26.437Z,101370.77
2018-06-10T00:24:28.407Z,101366.07
2018-06-10T00:27:31.043Z,101364.03
2018-06-10T00:30:33.095Z,101353.99
2018-06-10T00:33:35.103Z,101357.53
2018-06-10T00:36:37.210Z,101355.03
2018-06-10T00:39:39.269Z,101351.68
2018-06-10T00:42:41.223Z,101354.25
2018-06-10T00:45:43.334Z,101358.45
2018-06-10T00:48:45.374Z,101356.42
2018-06-10T00:51:47.425Z,101358.81
2018-06-10T00:54:49.503Z,101361.12
2018-06-10T00:57:51.575Z,101365.16
2018-06-10T01:00:53.532Z,101352.33
2018-06-10T01:03:55.647Z,101352.45
2018-06-10T01:06:57.704Z,101346.98
2018-06-10T01:10:00.327Z,101349.23
2018-06-10T01:13:03.471Z,101348.77
2018-06-10T01:16:05.522Z,101348.26
2018-06-10T01:19:07.578Z,101342.91
2018-06-10T01:22:09.689Z,101345.78
2018-06-10T01:25:11.722Z,101348.36
2018-06-10T01:28:13.789Z,101349.73
2018-06-10T01:31:15.790Z,101347.68
2018-06-10T01:34:17.826Z,101354.75
2018-06-10T01:37:20.547Z,101359.26
2018-06-10T01:40:22.590Z,101349.25
2018-06-10T01:43:24.522Z,101346.91
2018-06-10T01:46:26.529Z,101343.37
2018-06-10T01:49:28.575Z,101344.40
2018-06-10T01:52:30.640Z,101342.32
2018-06-10T01:55:32.710Z,101342.21
2018-06-10T01:58:35.831Z,101341.39
2018-06-10T02:01:37.860Z,101334.20
2018-06-10T02:04:39.851Z,101325.53
2018-06-10T02:07:41.925Z,101323.16
2018-06-10T02:10:43.990Z,101324.71
2018-06-10T02:13:46.103Z,101327.31
2018-06-10T02:16:48.224Z,101325.87
2018-06-10T02:19:51.008Z,101318.83
2018-06-10T02:22:52.963Z,101321.37
2018-06-10T02:25:55.066Z,101319.82
2018-06-10T02:28:57.110Z,101324.37
2018-06-10T02:31:59.192Z,101330.69
2018-06-10T02:35:01.238Z,101335.78
2018-06-10T02:38:03.361Z,101332.90
2018-06-10T02:41:05.746Z,101333.69
2018-06-10T02:44:08.792Z,101323.86
2018-06-10T02:47:10.863Z,101327.43
2018-06-10T02:50:12.926Z,101325.77
2018-06-10T02:53:14.888Z,101339.08
2018-06-10T02:56:17.986Z,101337.87
2018-06-10T02:59:21.176Z,101341.54
2018-06-10T03:02:23.281Z,101344.18
2018-06-10T03:05:25.337Z,101345.65
2018-06-10T03:08:27.422Z,101351.58
2018-06-10T03:11:29.543Z,101347.18
2018-06-10T03:14:31.623Z,101343.43
2018-06-10T03:17:33.567Z,101347.61
2018-06-10T03:20:35.650Z,101349.98
2018-06-10T03:23:37.731Z,101349.15
2018-06-10T03:26:39.863Z,101352.02
2018-06-10T03:29:41.881Z,101352.17
2018-06-10T03:32:43.932Z,101344.87
2018-06-10T03:35:46.007Z,101343.52
2018-06-10T03:38:47.949Z,101347.09
2018-06-10T03:41:51.076Z,101340.38
2018-06-10T03:44:53.123Z,101341.94
2018-06-10T03:47:55.215Z,101337.08
2018-06-10T03:50:57.171Z,101343.28
2018-06-10T03:53:59.985Z,101344.20
2018-06-10T03:57:02.030Z,101349.16
2018-06-10T04:00:04.138Z,101355.03
2018-06-10T04:03:06.191Z,101358.05
2018-06-10T04:06:09.271Z,101350.32
2018-06-10T04:09:11.357Z,101353.81
2018-06-10T04:12:13.405Z,101351.14
2018-06-10T04:15:15.434Z,101352.72
2018-06-10T04:18:17.532Z,101353.53
2018-06-10T04:21:19.443Z,101342.81
2018-06-10T04:24:21.459Z,101343.28
2018-06-10T04:27:23.554Z,101341.98
2018-06-10T04:30:25.607Z,101347.03
2018-06-10T04:33:27.682Z,101349.87
2018-06-10T04:36:30.667Z,101352.59
2018-06-10T04:39:32.739Z,101354.87
2018-06-10T04:42:34.823Z,101354.22
2018-06-10T04:45:36.863Z,101352.76
2018-06-10T04:48:38.936Z,101354.82
2018-06-10T04:51:41.027Z,101357.53
2018-06-10T04:54:43.282Z,101362.33
2018-06-10T04:57:46.403Z,101362.03
2018-06-10T05:00:48.485Z,101361.76
2018-06-10T05:03:50.499Z,101363.71
2018-06-10T05:06:52.479Z,101370.93
2018-06-10T05:09:54.543Z,101369.74
2018-06-10T05:12:57.569Z,101373.46
2018-06-10T05:16:00.361Z,101370.60
2018-06-10T05:19:03.372Z,101367.21
2018-06-10T05:22:05.583Z,101370.66
2018-06-10T05:25:08.675Z,101375.15
2018-06-10T05:28:10.784Z,101378.71
2018-06-10T05:31:13.872Z,101378.46
2018-06-10T05:34:15.932Z,101377.53
2018-06-10T05:37:18.051Z,101382.50
2018-06-10T05:40:20.179Z,101384.15
2018-06-10T05:43:22.275Z,101384.14
2018-06-10T05:46:24.279Z,101375.66
2018-06-10T05:49:27.494Z,101384.54
2018-06-10T05:52:29.527Z,101385.98
2018-06-10T05:55:31.616Z,101384.98
2018-06-10T05:58:33.853Z,101388.41
2018-06-10T06:01:35.824Z,101384.57
2018-06-10T06:04:38.430Z,101381.62
2018-06-10T06:07:40.490Z,101390.08
2018-06-10T06:10:42.468Z,101394.19
2018-06-10T06:13:44.558Z,101392.21
2018-06-10T06:16:46.661Z,101390.08
2018-06-10T06:19:48.675Z,101389.36
2018-06-10T06:22:51.687Z,101395.77
2018-06-10T06:25:53.751Z,101392.69
2018-06-10T06:28:55.819Z,101395.32
2018-06-10T06:31:57.891Z,101391.42
2018-06-10T06:34:59.947Z,101391.70
2018-06-10T06:38:02.074Z,101394.05
2018-06-10T06:41:04.095Z,101392.51
2018-06-10T06:44:06.360Z,101392.66
2018-06-10T06:47:09.503Z,101393.65
2018-06-10T06:50:11.521Z,101391.72
2018-06-10T06:53:14.096Z,101385.08
2018-06-10T06:56:16.199Z,101381.39
2018-06-10T06:59:18.228Z,101381.49
2018-06-10T07:02:20.312Z,101379.09
2018-06-10T07:05:23.763Z,101378.15
2018-06-10T07:08:26.140Z,101374.18
2018-06-10T07:11:30.206Z,101374.82
2018-06-10T07:14:32.690Z,101372.70
2018-06-10T07:17:36.774Z,101375.91
2018-06-10T07:20:38.880Z,101374.83
2018-06-10T07:23:40.970Z,101376.18
2018-06-10T07:26:42.911Z,101378.22
2018-06-10T07:29:44.948Z,101385.63
2018-06-10T07:32:47.027Z,101382.50
2018-06-10T07:35:49.007Z,101382.93
2018-06-10T07:38:52.008Z,101380.74
2018-06-10T07:41:54.064Z,101375.66
2018-06-10T07:44:56.135Z,101374.62
2018-06-10T07:47:58.194Z,101381.38
2018-06-10T07:51:00.287Z,101384.39
2018-06-10T07:54:02.511Z,101381.09
2018-06-10T07:57:04.629Z,101370.95
2018-06-10T08:00:07.512Z,101370.32
2018-06-10T08:03:09.522Z,101371.57
2018-06-10T08:06:11.676Z,101371.54
2018-06-10T08:09:13.823Z,101365.24
2018-06-10T08:12:15.911Z,101365.12
2018-06-10T08:15:18.092Z,101358.33
2018-06-10T08:18:20.110Z,101352.91
2018-06-10T08:21:22.800Z,101348.25
2018-06-10T08:24:24.880Z,101345.96
2018-06-10T08:27:26.951Z,101343.41
2018-06-10T08:30:29.099Z,101344.60
2018-06-10T08:33:31.233Z,101339.33
2018-06-10T08:36:33.275Z,101344.86
2018-06-10T08:39:35.753Z,101349.61
2018-06-10T08:42:37.778Z,101348.19
2018-06-10T08:45:39.839Z,101348.25
2018-06-10T08:48:41.864Z,101348.89
2018-06-10T08:51:43.903Z,101348.77
2018-06-10T08:54:45.819Z,101346.24
2018-06-10T08:57:47.843Z,101343.10
2018-06-10T09:00:49.870Z,101338.02
2018-06-10T09:03:53.030Z,101340.34
2018-06-10T09:06:54.955Z,101335.15
2018-06-10T09:09:57.102Z,101342.78
2018-06-10T09:12:59.184Z,101344.37
2018-06-10T09:16:01.379Z,101342.27
2018-06-10T09:19:03.520Z,101340.97
2018-06-10T09:22:05.620Z,101346.20
2018-06-10T09:25:07.760Z,101347.24
2018-06-10T09:28:10.759Z,101341.49
2018-06-10T09:31:12.787Z,101337.35
2018-06-10T09:34:14.815Z,101332.55
2018-06-10T09:37:16.888Z,101329.46
2018-06-10T09:40:18.931Z,101331.28
2018-06-10T09:43:22.983Z,101333.59
2018-06-10T09:46:25.021Z,101332.71
2018-06-10T09:49:27.103Z,101333.72
2018-06-10T09:52:29.039Z,101338.73
2018-06-10T09:55:31.289Z,101344.35
2018-06-10T09:58:33.204Z,101344.21
2018-06-10T10:01:35.123Z,101342.60
2018-06-10T10:04:37.262Z,101346.06
2018-06-10T10:07:39.282Z,101345.10
2018-06-10T10:10:41.367Z,101337.49
2018-06-10T10:13:45.679Z,101338.49
2018-06-10T10:16:47.832Z,101335.75
2018-06-10T10:19:49.851Z,101329.25
2018-06-10T10:22:52.552Z,101325.74
2018-06-10T10:25:54.559Z,101325.70
2018-06-10T10:28:56.567Z,101327.65
2018-06-10T10:31:58.734Z,101314.76
2018-06-10T10:35:00.787Z,101318.52
2018-06-10T10:38:02.907Z,101309.47
2018-06-10T10:41:05.111Z,101300.36
2018-06-10T10:44:07.203Z,101301.68
2018-06-10T10:47:09.268Z,101297.44
2018-06-10T10:50:11.331Z,101289.09
2018-06-10T10:53:13.258Z,101286.90
2018-06-10T10:56:15.263Z,101277.06
2018-06-10T10:59:17.441Z,101268.24
2018-06-10T11:02:20.093Z,101271.03
2018-06-10T11:05:22.082Z,101275.46
2018-06-10T11:08:24.075Z,101277.91
2018-06-10T11:11:26.195Z,101272.17
2018-06-10T11:14:29.228Z,101268.58
2018-06-10T11:17:31.495Z,101269.84
2018-06-10T11:20:33.578Z,101264.90
2018-06-10T11:23:35.644Z,101257.15
2018-06-10T11:26:38.519Z,101257.08
2018-06-10T11:29:40.611Z,101253.28
2018-06-10T11:32:42.713Z,101255.13
2018-06-10T11:35:44.764Z,101254.19
2018-06-10T11:38:47.327Z,101240.19
2018-06-10T11:41:49.405Z,101243.16
2018-06-10T11:44:51.451Z,101241.68
2018-06-10T11:47:53.530Z,101240.04
2018-06-10T11:50:55.615Z,101235.08
2018-06-10T11:53:57.654Z,101238.16
2018-06-10T11:56:59.628Z,101241.31
2018-06-10T12:00:01.731Z,101237.17
2018-06-10T12:03:03.798Z,101230.10
2018-06-10T12:06:05.975Z,101228.83
2018-06-10T12:09:09.121Z,101228.66
2018-06-10T12:12:11.189Z,101222.69
2018-06-10T12:15:14.176Z,101218.91
2018-06-10T12:18:16.257Z,101215.72
2018-06-10T12:21:18.357Z,101211.78
2018-06-10T12:24:20.486Z,101212.48
2018-06-10T12:27:22.587Z,101210.22
2018-06-10T12:30:24.622Z,101207.83
2018-06-10T12:33:26.715Z,101200.10
2018-06-10T12:36:28.719Z,101202.17
2018-06-10T12:39:30.718Z,101206.20
2018-06-10T12:42:32.865Z,101202.13
2018-06-10T12:45:34.810Z,101196.45
2018-06-10T12:48:36.831Z,101192.76
2018-06-10T12:51:38.926Z,101199.37
2018-06-10T12:54:40.983Z,101194.93
2018-06-10T12:57:43.054Z,101198.89
2018-06-10T13:00:45.131Z,101194.11
2018-06-10T13:03:47.223Z,101198.88
2018-06-10T13:07:08.257Z,101194.25
2018-06-10T13:10:10.671Z,101189.45
2018-06-10T13:13:12.770Z,101184.40
2018-06-10T13:16:14.812Z,101187.19
2018-06-10T13:19:16.881Z,101174.76
2018-06-10T13:22:19.283Z,101170.06
2018-06-10T13:25:21.298Z,101171.34
2018-06-10T13:28:24.421Z,101180.30
2018-06-10T13:31:26.480Z,101179.65
2018-06-10T13:34:29.484Z,101176.85
2018-06-10T13:37:31.424Z,101180.63
2018-06-10T13:40:33.551Z,101183.16
2018-06-10T13:43:35.463Z,101184.85
2018-06-10T13:46:38.374Z,101182.27
2018-06-10T13:49:40.472Z,101176.14
2018-06-10T13:52:42.495Z,101182.93
2018-06-10T13:55:44.567Z,101184.85
2018-06-10T13:58:46.684Z,101179.83
2018-06-10T14:01:48.679Z,101172.56
2018-06-10T14:04:50.777Z,101173.14
2018-06-10T14:07:52.870Z,101175.15
2018-06-10T14:10:55.095Z,101177.18
2018-06-10T14:13:57.170Z,101192.66
2018-06-10T14:16:59.315Z,101180.62
2018-06-10T14:20:01.408Z,101191.43
2018-06-10T14:23:03.507Z,101198.40
2018-06-10T14:26:06.822Z,101201.02
2018-06-10T14:29:08.972Z,101200.55
2018-06-10T14:32:12.068Z,101186.51
2018-06-10T14:35:13.983Z,101175.88
2018-06-10T14:38:16.086Z,101170.71
2018-06-10T14:41:18.181Z,101159.50
2018-06-10T14:44:20.270Z,101148.52
2018-06-10T14:47:22.375Z,101141.18
2018-06-10T14:50:24.646Z,101140.95
2018-06-10T14:53:26.626Z,101136.96
2018-06-10T14:56:29.816Z,101135.16
2018-06-10T14:59:31.902Z,101134.32
2018-06-10T15:02:33.998Z,101127.93
2018-06-10T15:05:35.968Z,101133.87
2018-06-10T15:08:37.958Z,101127.22
2018-06-10T15:11:40.001Z,101129.17
2018-06-10T15:14:42.023Z,101114.95
2018-06-10T15:17:44.095Z,101114.55
2018-06-10T15:20:46.176Z,101110.69
2018-06-10T15:23:48.265Z,101099.39
2018-06-10T15:26:50.324Z,101103.23
2018-06-10T15:29:52.379Z,101100.88
2018-06-10T15:32:54.338Z,101104.96
2018-06-10T15:35:57.475Z,101099.88
2018-06-10T15:38:59.555Z,101093.74
2018-06-10T15:42:01.731Z,101094.04
2018-06-10T15:45:03.888Z,101083.81
2018-06-10T15:48:05.915Z,101084.86
2018-06-10T15:51:09.044Z,101075.19
2018-06-10T15:54:11.092Z,101076.35
2018-06-10T15:57:13.139Z,101077.79
2018-06-10T16:00:15.111Z,101079.31
2018-06-10T16:03:17.205Z,101079.00
2018-06-10T16:06:19.130Z,101074.31
2018-06-10T16:09:21.218Z,101078.60
2018-06-10T16:12:23.295Z,101080.26
2018-06-10T16:15:25.364Z,101086.53
2018-06-10T16:18:27.453Z,101079.67
2018-06-10T16:21:29.486Z,101083.94
2018-06-10T16:24:31.551Z,101088.65
2018-06-10T16:27:34.534Z,101088.86
2018-06-10T16:30:36.628Z,101092.12
2018-06-10T16:33:39.805Z,101089.60
2018-06-10T16:36:41.887Z,101095.41
2018-06-10T16:39:43.964Z,101083.60
2018-06-10T16:42:46.137Z,101079.78
2018-06-10T16:45:49.198Z,101077.85
2018-06-10T16:48:51.167Z,101073.70
2018-06-10T16:51:53.259Z,101074.08
2018-06-10T16:54:55.363Z,101076.91
2018-06-10T16:57:57.473Z,101077.05
2018-06-10T17:00:59.406Z,101080.84
2018-06-10T17:04:01.461Z,101086.02
2018-06-10T17:07:03.831Z,101087.23
2018-06-10T17:10:05.924Z,101091.27
2018-06-10T17:13:09.003Z,101081.19
2018-06-10T17:16:11.068Z,101074.16
2018-06-10T17:19:13.113Z,101077.10
2018-06-10T17:22:15.998Z,101077.26
2018-06-10T17:25:18.169Z,101077.78
2018-06-10T17:28:20.374Z,101078.18
2018-06-10T17:31:22.382Z,101069.57
2018-06-10T17:34:24.434Z,101064.28
2018-06-10T17:37:26.531Z,101067.68
2018-06-10T17:40:28.843Z,101060.65
2018-06-10T17:43:30.970Z,101060.11
2018-06-10T17:46:32.891Z,101067.77
2018-06-10T17:49:35.100Z,101069.51
2018-06-10T17:52:37.311Z,101069.73
2018-06-10T17:55:39.414Z,101066.23
2018-06-10T17:58:41.414Z,101067.17
2018-06-10T18:01:43.410Z,101065.90
2018-06-10T18:04:46.682Z,101069.53
2018-06-10T18:07:48.802Z,101080.57
2018-06-10T18:10:54.608Z,101092.05
2018-06-10T18:13:56.659Z,101102.60
2018-06-10T18:16:58.721Z,101108.59
2018-06-10T18:20:00.811Z,101119.65
2018-06-10T18:23:02.911Z,101122.13
2018-06-10T18:26:04.983Z,101128.18
2018-06-10T18:29:07.013Z,101136.46
2018-06-10T18:32:09.163Z,101146.05
2018-06-10T18:35:11.246Z,101152.66
2018-06-10T18:38:13.346Z,101146.63
2018-06-10T18:41:16.601Z,101145.03
2018-06-10T18:44:18.712Z,101154.55
2018-06-10T18:47:20.835Z,101156.32
2018-06-10T18:50:22.922Z,101160.33
2018-06-10T18:53:26.006Z,101164.68
2018-06-10T18:56:28.139Z,101161.19
2018-06-10T18:59:30.135Z,101161.76
2018-06-10T19:02:32.233Z,101164.86
2018-06-10T19:05:34.291Z,101174.81
2018-06-10T19:08:36.550Z,101173.56
2018-06-10T19:11:38.668Z,101176.41
2018-06-10T19:14:40.595Z,101181.96
2018-06-10T19:17:42.674Z,101183.36
2018-06-10T19:20:44.772Z,101184.31
2018-06-10T19:23:46.917Z,101185.12
2018-06-10T19:26:48.979Z,101179.31
2018-06-10T19:29:51.073Z,101180.48
2018-06-10T19:32:53.126Z,101180.23
2018-06-10T19:35:55.217Z,101184.38
2018-06-10T19:38:57.239Z,101188.13
2018-06-10T19:41:59.211Z,101191.09
2018-06-10T19:45:01.375Z,101204.07
2018-06-10T19:48:03.472Z,101212.70
2018-06-10T19:51:05.555Z,101205.81
2018-06-10T19:54:07.591Z,101202.62
2018-06-10T19:57:09.671Z,101208.22
2018-06-10T20:00:11.730Z,101204.24
2018-06-10T20:03:13.810Z,101214.99
2018-06-10T20:06:17.176Z,101218.25
2018-06-10T20:09:21.243Z,101226.82
2018-06-10T20:12:23.261Z,101233.95
2018-06-10T20:15:25.353Z,101239.43
2018-06-10T20:18:27.398Z,101247.00
2018-06-10T20:21:29.331Z,101256.37
2018-06-10T20:24:35.283Z,101253.21
2018-06-10T20:27:37.316Z,101246.05
2018-06-10T20:30:39.450Z,101240.19
2018-06-10T20:33:41.474Z,101246.37
2018-06-10T20:36:43.533Z,101251.00
2018-06-10T20:39:46.211Z,101260.14
2018-06-10T20:42:48.278Z,101264.54
2018-06-10T20:45:50.242Z,101261.78
2018-06-10T20:48:52.207Z,101251.90
2018-06-10T20:51:54.312Z,101257.23
2018-06-10T20:54:56.477Z,101260.62
2018-06-10T20:57:59.573Z,101259.74
2018-06-10T21:01:01.626Z,101255.71
2018-06-10T21:04:03.700Z,101254.67
2018-06-10T21:07:05.749Z,101259.03
2018-06-10T21:10:07.852Z,101266.39
2018-06-10T21:13:09.873Z,101272.23
2018-06-10T21:16:11.968Z,101278.80
2018-06-10T21:19:14.011Z,101291.89
2018-06-10T21:22:16.830Z,101320.58
2018-06-10T21:25:18.855Z,101355.55
2018-06-10T21:28:20.806Z,101382.63
2018-06-10T21:31:22.795Z,101391.09
2018-06-10T21:34:24.879Z,101387.82
2018-06-10T21:37:26.931Z,101390.15
2018-06-10T21:40:28.989Z,101390.77
2018-06-10T21:43:30.966Z,101391.06
2018-06-10T21:46:33.047Z,101382.40
2018-06-10T21:49:35.099Z,101375.56
2018-06-10T21:52:37.199Z,101354.41
2018-06-10T21:55:39.259Z,101341.50
2018-06-10T21:58:41.286Z,101337.93
2018-06-10T22:01:43.319Z,101338.04
2018-06-10T22:04:45.964Z,101330.38
2018-06-10T22:07:48.060Z,101319.12
2018-06-10T22:10:50.202Z,101322.57
2018-06-10T22:13:52.267Z,101314.71
2018-06-10T22:16:54.369Z,101305.36
2018-06-10T22:19:59.421Z,101311.01
2018-06-10T22:26:30.694Z,101301.47
2018-06-10T22:29:37.070Z,101285.47
2018-06-10T22:32:39.147Z,101271.51
2018-06-10T22:35:41.234Z,101279.52
2018-06-10T22:38:43.287Z,101285.32
2018-06-10T22:41:45.569Z,101284.93
2018-06-10T22:44:47.624Z,101286.08
2018-06-10T22:47:49.711Z,101293.71
2018-06-10T22:50:52.907Z,101296.97
2018-06-10T22:54:36.520Z,101293.28
2018-06-10T22:57:38.769Z,101280.37
2018-06-10T23:00:40.781Z,101289.59
2018-06-10T23:03:42.883Z,101291.63
2018-06-10T23:06:44.903Z,101287.91
2018-06-10T23:09:47.017Z,101289.90
2018-06-10T23:12:49.154Z,101286.35
2018-06-10T23:15:51.224Z,101291.03
2018-06-10T23:18:53.944Z,101298.69
2018-06-10T23:21:55.868Z,101294.91
2018-06-10T23:24:57.975Z,101299.87
2018-06-10T23:28:00.015Z,101303.21
2018-06-10T23:31:01.964Z,101308.78
2018-06-10T23:34:04.052Z,101298.47
2018-06-10T23:37:06.127Z,101299.31
2018-06-10T23:40:08.247Z,101300.26
2018-06-10T23:43:10.350Z,101301.33
2018-06-10T23:46:12.451Z,101296.92
2018-06-10T23:49:14.979Z,101307.98
2018-06-10T23:52:17.059Z,101301.26
2018-06-10T23:55:18.967Z,101295.43
2018-06-10T23:58:21.140Z,101287.91
